createdAt,value
2022-11-29T00:02:04.228Z,101.72
2022-11-29T00:04:32.167Z,88.53
2022-11-29T00:07:00.113Z,75.40
2022-11-29T00:09:32.160Z,73.85
2022-11-29T00:12:15.208Z,70.75
2022-11-29T00:14:47.270Z,100.13
2022-11-29T00:17:15.539Z,97.90
2022-11-29T00:22:29.628Z,94.82
2022-11-29T00:24:57.764Z,99.50
2022-11-29T00:27:33.281Z,97.05
2022-11-29T00:30:05.677Z,68.95
2022-11-29T00:33:09.951Z,126.82
2022-11-29T00:35:37.912Z,86.93
2022-11-29T00:38:05.743Z,110.18
2022-11-29T00:44:57.137Z,169.45
2022-11-29T00:47:25.212Z,177.25
2022-11-29T00:50:44.458Z,157.73
2022-11-29T00:54:14.347Z,184.35
2022-11-29T00:56:47.938Z,132.88
2022-11-29T01:00:01.386Z,236.85
2022-11-29T01:02:39.114Z,174.88
2022-11-29T01:05:10.849Z,191.50
2022-11-29T01:10:33.982Z,177.77
2022-11-29T01:13:07.539Z,133.55
2022-11-29T01:18:05.063Z,113.82
2022-11-29T01:20:33.061Z,98.32
2022-11-29T01:23:00.931Z,73.63
2022-11-29T01:25:29.435Z,114.20
2022-11-29T01:27:57.746Z,110.70
2022-11-29T01:30:25.859Z,151.25
2022-11-29T01:32:53.651Z,64.68
2022-11-29T01:35:21.522Z,101.90
2022-11-29T01:37:49.512Z,66.47
2022-11-29T01:40:17.247Z,43.10
2022-11-29T01:42:45.090Z,85.82
2022-11-29T01:45:25.264Z,115.78
2022-11-29T01:47:56.930Z,144.63
2022-11-29T01:50:25.012Z,87.05
2022-11-29T01:52:52.965Z,157.70
2022-11-29T01:55:20.837Z,116.35
2022-11-29T01:57:53.299Z,165.90
2022-11-29T02:00:22.084Z,123.80
2022-11-29T02:02:59.709Z,69.10
2022-11-29T02:05:29.976Z,80.53
2022-11-29T02:08:00.052Z,77.10
2022-11-29T02:10:51.221Z,104.30
2022-11-29T02:13:42.568Z,73.93
2022-11-29T02:16:20.533Z,110.03
2022-11-29T02:19:28.355Z,86.95
2022-11-29T02:22:05.440Z,136.68
2022-11-29T02:24:58.058Z,101.22
2022-11-29T02:28:04.046Z,99.30
2022-11-29T02:31:03.513Z,88.65
2022-11-29T02:33:56.170Z,86.63
2022-11-29T02:37:00.240Z,94.35
2022-11-29T02:39:43.095Z,60.90
2022-11-29T02:42:55.623Z,36.35
2022-11-29T02:45:39.273Z,82.80
2022-11-29T02:48:44.753Z,103.78
2022-11-29T02:51:41.646Z,86.80
2022-11-29T02:54:28.789Z,45.22
2022-11-29T02:57:19.249Z,72.20
2022-11-29T03:00:05.599Z,99.82
2022-11-29T03:02:51.978Z,78.70
2022-11-29T03:05:29.319Z,280.48
2022-11-29T03:08:29.615Z,228.95
2022-11-29T03:10:57.464Z,139.55
2022-11-29T03:13:45.535Z,231.18
2022-11-29T03:16:45.358Z,191.70
2022-11-29T03:19:34.585Z,143.65
2022-11-29T03:22:24.372Z,140.20
2022-11-29T03:25:22.557Z,153.02
2022-11-29T03:28:01.494Z,198.77
2022-11-29T03:30:33.214Z,131.65
2022-11-29T03:33:08.335Z,142.85
2022-11-29T03:35:51.242Z,134.80
2022-11-29T03:38:23.738Z,126.03
2022-11-29T03:41:25.261Z,155.45
2022-11-29T03:44:18.951Z,139.68
2022-11-29T03:47:12.110Z,62.67
2022-11-29T03:49:50.132Z,67.65
2022-11-29T03:52:52.332Z,89.90
2022-11-29T03:55:51.034Z,48.60
2022-11-29T03:58:49.733Z,63.90
2022-11-29T04:01:43.123Z,77.85
2022-11-29T04:04:52.767Z,68.90
2022-11-29T04:11:06.173Z,84.22
2022-11-29T04:14:07.832Z,118.20
2022-11-29T04:17:07.779Z,130.45
2022-11-29T04:20:05.879Z,124.60
2022-11-29T04:22:49.151Z,179.90
2022-11-29T04:26:19.467Z,65.00
2022-11-29T04:29:17.432Z,74.18
2022-11-29T04:32:24.085Z,110.25
2022-11-29T04:35:07.174Z,109.15
2022-11-29T04:37:56.606Z,108.35
2022-11-29T04:40:36.793Z,127.80
2022-11-29T04:43:42.451Z,76.72
2022-11-29T04:46:13.464Z,145.75
2022-11-29T04:49:03.410Z,101.10
2022-11-29T04:55:10.477Z,189.40
2022-11-29T04:57:43.467Z,88.20
2022-11-29T05:00:18.942Z,163.05
2022-11-29T05:03:05.124Z,113.07
2022-11-29T05:05:53.300Z,81.18
2022-11-29T05:08:41.276Z,141.65
2022-11-29T05:11:33.331Z,130.23
2022-11-29T05:14:25.955Z,142.15
2022-11-29T05:17:20.488Z,107.32
2022-11-29T05:20:16.674Z,127.43
2022-11-29T05:23:15.100Z,126.32
2022-11-29T05:25:49.378Z,178.70
2022-11-29T05:28:30.836Z,112.88
2022-11-29T05:31:29.457Z,182.02
2022-11-29T05:34:37.780Z,131.45
2022-11-29T05:37:39.661Z,93.82
2022-11-29T05:40:28.600Z,154.60
2022-11-29T05:43:28.115Z,86.10
2022-11-29T05:46:45.935Z,59.63
2022-11-29T05:49:36.736Z,70.45
2022-11-29T05:52:16.296Z,59.63
2022-11-29T05:55:06.332Z,57.03
2022-11-29T05:57:56.583Z,52.22
2022-11-29T06:00:57.201Z,46.72
2022-11-29T06:04:27.211Z,33.30
2022-11-29T06:07:23.677Z,30.70
2022-11-29T06:10:21.161Z,35.53
2022-11-29T06:13:08.302Z,25.83
2022-11-29T06:16:14.801Z,32.83
2022-11-29T06:19:25.059Z,31.25
2022-11-29T06:22:01.770Z,29.67
2022-11-29T06:24:36.124Z,33.10
2022-11-29T06:27:27.466Z,30.63
2022-11-29T06:30:09.454Z,36.35
2022-11-29T06:32:47.505Z,28.63
2022-11-29T06:35:18.544Z,35.90
2022-11-29T06:40:19.817Z,39.13
2022-11-29T06:42:49.735Z,27.92
2022-11-29T06:45:19.166Z,37.95
2022-11-29T06:47:57.862Z,38.70
2022-11-29T06:50:59.183Z,34.00
2022-11-29T06:54:01.377Z,35.75
2022-11-29T07:00:11.834Z,36.22
2022-11-29T07:03:11.857Z,35.78
2022-11-29T07:05:49.256Z,38.55
2022-11-29T07:08:23.220Z,41.97
2022-11-29T07:10:57.626Z,46.05
2022-11-29T07:13:35.595Z,39.70
2022-11-29T07:16:30.492Z,39.42
2022-11-29T07:19:36.418Z,46.70
2022-11-29T07:22:08.136Z,56.28
2022-11-29T07:25:34.075Z,54.63
2022-11-29T07:28:04.600Z,50.72
2022-11-29T07:31:17.068Z,44.70
2022-11-29T07:33:58.873Z,56.03
2022-11-29T07:36:48.495Z,85.05
2022-11-29T07:39:51.301Z,131.38
2022-11-29T07:42:50.104Z,97.55
2022-11-29T07:45:43.272Z,197.82
2022-11-29T07:48:24.034Z,129.80
2022-11-29T07:50:51.954Z,220.45
2022-11-29T07:53:25.611Z,158.30
2022-11-29T07:55:58.222Z,129.57
2022-11-29T07:58:26.373Z,140.20
2022-11-29T08:07:00.532Z,124.25
2022-11-29T08:12:57.248Z,92.03
2022-11-29T08:19:41.598Z,100.00
2022-11-29T08:22:35.602Z,103.18
2022-11-29T08:28:56.028Z,65.13
2022-11-29T08:32:36.496Z,86.82
2022-11-29T08:36:11.837Z,93.32
2022-11-29T08:39:13.391Z,158.45
2022-11-29T08:41:59.569Z,157.25
2022-11-29T08:44:54.365Z,116.35
2022-11-29T08:47:37.671Z,152.65
2022-11-29T08:50:19.456Z,101.85
2022-11-29T08:53:17.498Z,139.52
2022-11-29T08:55:49.557Z,122.78
2022-11-29T08:58:21.157Z,193.68
2022-11-29T09:01:03.252Z,141.82
2022-11-29T09:04:17.886Z,139.30
2022-11-29T09:06:46.051Z,103.18
2022-11-29T09:09:42.818Z,83.63
2022-11-29T09:12:10.721Z,127.40
2022-11-29T09:14:52.692Z,143.32
2022-11-29T09:17:20.611Z,223.05
2022-11-29T09:20:19.553Z,205.13
2022-11-29T09:22:47.414Z,158.40
2022-11-29T09:25:15.328Z,120.47
2022-11-29T09:27:43.347Z,199.80
2022-11-29T09:30:17.001Z,164.02
2022-11-29T09:32:52.382Z,77.72
2022-11-29T09:35:20.887Z,139.70
2022-11-29T09:37:48.622Z,87.57
2022-11-29T09:40:20.155Z,66.75
2022-11-29T09:43:20.503Z,77.82
2022-11-29T09:46:24.984Z,91.93
2022-11-29T09:49:04.860Z,89.45
2022-11-29T09:51:46.696Z,76.00
2022-11-29T09:54:59.096Z,96.95
2022-11-29T09:57:30.033Z,67.15
2022-11-29T10:00:07.295Z,99.15
2022-11-29T10:02:45.579Z,54.67
2022-11-29T10:05:50.303Z,34.85
2022-11-29T10:08:44.084Z,53.47
2022-11-29T10:11:25.329Z,41.67
2022-11-29T10:14:16.458Z,47.38
2022-11-29T10:16:55.373Z,36.83
2022-11-29T10:19:42.471Z,28.85
2022-11-29T10:22:45.059Z,30.95
2022-11-29T10:25:23.086Z,42.30
2022-11-29T10:27:50.973Z,32.03
2022-11-29T10:30:18.843Z,24.38
2022-11-29T10:32:50.952Z,33.75
2022-11-29T10:35:20.625Z,36.97
2022-11-29T10:38:22.688Z,34.35
2022-11-29T10:40:47.357Z,31.15
2022-11-29T10:43:15.301Z,42.05
2022-11-29T10:45:50.391Z,45.13
2022-11-29T10:48:21.045Z,36.30
2022-11-29T10:50:51.347Z,35.38
2022-11-29T10:53:28.416Z,33.47
2022-11-29T10:56:27.150Z,31.02
2022-11-29T10:59:03.401Z,27.88
2022-11-29T11:01:34.203Z,32.58
2022-11-29T11:04:04.358Z,32.88
2022-11-29T11:06:56.335Z,38.45
2022-11-29T11:09:38.345Z,50.00
2022-11-29T11:12:34.955Z,40.00
2022-11-29T11:15:24.326Z,36.60
2022-11-29T11:18:05.161Z,35.22
2022-11-29T11:20:42.263Z,31.90
2022-11-29T11:23:32.821Z,19.27
2022-11-29T11:26:09.912Z,28.23
2022-11-29T11:28:43.918Z,29.17
2022-11-29T11:31:12.836Z,29.55
2022-11-29T11:33:41.968Z,15.57
2022-11-29T11:36:14.629Z,16.55
2022-11-29T11:38:52.087Z,16.38
2022-11-29T11:42:05.132Z,19.90
2022-11-29T11:44:47.467Z,20.48
2022-11-29T11:47:36.702Z,21.27
2022-11-29T11:50:11.726Z,21.25
2022-11-29T11:52:42.023Z,23.63
2022-11-29T11:55:36.526Z,27.10
2022-11-29T11:58:10.583Z,19.17
2022-11-29T12:03:39.901Z,14.95
2022-11-29T12:06:08.394Z,16.95
2022-11-29T12:08:38.156Z,18.42
2022-11-29T12:11:08.582Z,19.52
2022-11-29T12:13:42.525Z,17.35
2022-11-29T12:16:19.823Z,20.10
2022-11-29T12:18:50.647Z,21.85
2022-11-29T12:21:24.307Z,21.25
2022-11-29T12:24:19.076Z,20.92
2022-11-29T12:26:57.018Z,19.23
2022-11-29T12:29:28.993Z,23.27
2022-11-29T12:32:20.421Z,22.85
2022-11-29T12:35:06.774Z,22.85
2022-11-29T12:37:56.883Z,17.75
2022-11-29T12:40:35.060Z,26.60
2022-11-29T12:43:16.389Z,22.50
2022-11-29T12:45:58.945Z,25.20
2022-11-29T12:48:38.461Z,26.33
2022-11-29T12:51:25.948Z,28.73
2022-11-29T12:54:34.892Z,31.40
2022-11-29T12:57:14.710Z,35.60
2022-11-29T12:59:56.284Z,27.00
2022-11-29T13:02:58.355Z,35.97
2022-11-29T13:05:34.041Z,35.67
2022-11-29T13:08:34.602Z,38.63
2022-11-29T13:11:29.655Z,35.97
2022-11-29T13:14:40.532Z,34.63
2022-11-29T13:16:59.037Z,28.17
2022-11-29T13:19:33.094Z,29.95
2022-11-29T13:22:09.859Z,29.58
2022-11-29T13:24:45.557Z,32.85
2022-11-29T13:27:22.364Z,30.55
2022-11-29T13:29:50.765Z,29.08
2022-11-29T13:32:40.907Z,34.72
2022-11-29T13:35:49.183Z,31.20
2022-11-29T13:38:59.454Z,35.40
2022-11-29T13:41:48.018Z,32.15
2022-11-29T13:44:38.759Z,25.45
2022-11-29T13:47:11.156Z,38.13
2022-11-29T13:50:06.255Z,29.88
2022-11-29T13:52:45.596Z,28.95
2022-11-29T13:55:14.151Z,25.10
2022-11-29T14:00:44.201Z,23.52
2022-11-29T14:03:24.221Z,24.05
2022-11-29T14:05:54.597Z,27.00
2022-11-29T14:11:49.655Z,27.23
2022-11-29T14:14:29.542Z,27.67
2022-11-29T14:17:03.795Z,25.42
2022-11-29T14:19:36.776Z,19.92
2022-11-29T14:22:18.269Z,23.05
2022-11-29T14:25:00.011Z,20.52
2022-11-29T14:27:28.542Z,21.15
2022-11-29T14:29:56.467Z,20.05
2022-11-29T14:32:24.204Z,20.92
2022-11-29T14:35:12.405Z,26.10
2022-11-29T14:37:58.665Z,20.85
2022-11-29T14:40:52.559Z,20.63
2022-11-29T14:43:41.736Z,28.00
2022-11-29T14:46:29.277Z,31.15
2022-11-29T14:49:00.024Z,24.77
2022-11-29T14:51:31.076Z,25.23
2022-11-29T14:54:13.472Z,35.88
2022-11-29T14:56:43.268Z,20.38
2022-11-29T14:59:52.012Z,21.05
2022-11-29T15:02:55.316Z,31.15
2022-11-29T15:05:45.139Z,21.38
2022-11-29T15:08:41.829Z,22.88
2022-11-29T15:11:10.954Z,33.15
2022-11-29T15:14:20.726Z,26.08
2022-11-29T15:17:13.872Z,26.52
2022-11-29T15:19:53.990Z,29.88
2022-11-29T15:22:27.798Z,20.13
2022-11-29T15:24:58.240Z,46.38
2022-11-29T15:27:28.174Z,25.25
2022-11-29T15:29:56.297Z,32.92
2022-11-29T15:32:25.983Z,29.08
2022-11-29T15:34:56.866Z,41.10
2022-11-29T15:37:31.895Z,51.67
2022-11-29T15:40:23.902Z,29.17
2022-11-29T15:42:58.108Z,40.00
2022-11-29T15:45:33.812Z,37.20
2022-11-29T15:48:32.916Z,38.30
2022-11-29T15:51:26.676Z,31.73
2022-11-29T15:54:12.144Z,50.53
2022-11-29T15:56:49.225Z,52.88
2022-11-29T15:59:29.569Z,45.75
2022-11-29T16:02:00.787Z,49.70
2022-11-29T16:04:29.436Z,62.75
2022-11-29T16:06:57.946Z,56.40
2022-11-29T16:09:40.831Z,45.10
2022-11-29T16:12:14.385Z,36.95
2022-11-29T16:14:51.580Z,45.28
2022-11-29T16:17:21.105Z,39.80
2022-11-29T16:19:48.995Z,36.20
2022-11-29T16:22:23.781Z,45.05
2022-11-29T16:25:05.266Z,35.08
2022-11-29T16:27:35.330Z,31.65
2022-11-29T16:30:04.703Z,36.60
2022-11-29T16:32:42.402Z,45.40
2022-11-29T16:35:24.481Z,47.97
2022-11-29T16:37:52.378Z,38.88
2022-11-29T16:40:22.007Z,48.03
2022-11-29T16:43:05.133Z,41.63
2022-11-29T16:45:38.698Z,33.67
2022-11-29T16:48:27.567Z,27.92
2022-11-29T16:51:18.259Z,43.42
2022-11-29T16:56:23.653Z,28.85
2022-11-29T16:59:24.754Z,21.58
2022-11-29T17:01:49.677Z,24.15
2022-11-29T17:04:23.484Z,31.13
2022-11-29T17:06:54.607Z,42.35
2022-11-29T17:09:32.586Z,38.05
2022-11-29T17:12:02.219Z,39.95
2022-11-29T17:14:31.319Z,52.03
2022-11-29T17:17:02.568Z,37.38
2022-11-29T17:19:30.955Z,43.70
2022-11-29T17:21:59.208Z,37.70
2022-11-29T17:24:27.261Z,48.63
2022-11-29T17:26:54.793Z,42.90
2022-11-29T17:29:22.397Z,47.28
2022-11-29T17:31:50.703Z,37.88
2022-11-29T17:34:18.876Z,44.53
2022-11-29T17:36:46.745Z,37.88
2022-11-29T17:39:15.747Z,35.67
2022-11-29T17:41:43.386Z,35.95
2022-11-29T17:44:11.056Z,35.85
2022-11-29T17:46:39.212Z,41.70
2022-11-29T17:49:09.258Z,28.65
2022-11-29T17:51:54.220Z,37.83
2022-11-29T17:54:23.086Z,35.90
2022-11-29T17:56:50.957Z,29.55
2022-11-29T17:59:19.304Z,28.15
2022-11-29T18:01:49.601Z,31.02
2022-11-29T18:04:17.395Z,31.52
2022-11-29T18:06:50.013Z,31.52
2022-11-29T18:09:19.858Z,39.15
2022-11-29T18:11:50.180Z,30.02
2022-11-29T18:14:24.201Z,29.65
2022-11-29T18:16:52.693Z,32.42
2022-11-29T18:19:22.565Z,32.40
2022-11-29T18:21:50.810Z,32.88
2022-11-29T18:24:18.810Z,38.60
2022-11-29T18:26:46.875Z,32.75
2022-11-29T18:29:14.701Z,28.80
2022-11-29T18:31:45.266Z,31.58
2022-11-29T18:34:14.842Z,30.25
2022-11-29T18:36:48.127Z,21.85
2022-11-29T18:39:18.395Z,30.55
2022-11-29T18:41:50.742Z,28.05
2022-11-29T18:44:24.638Z,35.35
2022-11-29T18:46:52.235Z,33.30
2022-11-29T18:49:20.085Z,34.28
2022-11-29T18:51:48.572Z,39.20
2022-11-29T18:54:18.415Z,31.98
2022-11-29T18:56:46.581Z,29.83
2022-11-29T18:59:17.600Z,26.98
2022-11-29T19:01:47.799Z,31.70
2022-11-29T19:04:20.687Z,32.72
2022-11-29T19:06:49.263Z,36.47
2022-11-29T19:09:21.484Z,37.00
2022-11-29T19:11:50.196Z,40.25
2022-11-29T19:14:18.803Z,31.33
2022-11-29T19:16:48.687Z,28.40
2022-11-29T19:19:18.792Z,28.30
2022-11-29T19:21:46.692Z,34.13
2022-11-29T19:24:17.810Z,34.45
2022-11-29T19:26:47.540Z,31.27
2022-11-29T19:29:16.045Z,29.40
2022-11-29T19:31:44.702Z,33.33
2022-11-29T19:34:12.538Z,38.25
2022-11-29T19:36:44.957Z,29.52
2022-11-29T19:39:15.050Z,34.03
2022-11-29T19:41:45.012Z,34.60
2022-11-29T19:44:12.984Z,34.40
2022-11-29T19:46:48.817Z,35.83
2022-11-29T19:49:17.346Z,36.10
2022-11-29T19:51:45.214Z,32.90
2022-11-29T19:54:13.012Z,36.50
2022-11-29T19:56:40.853Z,38.65
2022-11-29T19:59:10.772Z,35.10
2022-11-29T20:01:41.416Z,37.15
2022-11-29T20:04:12.158Z,34.53
2022-11-29T20:06:41.556Z,37.42
2022-11-29T20:09:09.914Z,37.03
2022-11-29T20:11:40.152Z,34.42
2022-11-29T20:14:09.009Z,33.72
2022-11-29T20:16:40.878Z,37.72
2022-11-29T20:19:30.231Z,30.92
2022-11-29T20:21:57.966Z,46.65
2022-11-29T20:24:25.850Z,37.25
2022-11-29T20:26:53.604Z,47.47
2022-11-29T20:29:21.950Z,48.33
2022-11-29T20:31:51.223Z,34.85
2022-11-29T20:34:20.361Z,44.78
2022-11-29T20:37:10.097Z,34.08
2022-11-29T20:39:54.141Z,40.58
2022-11-29T20:45:01.869Z,30.50
2022-11-29T20:47:53.760Z,38.47
2022-11-29T20:50:30.271Z,34.92
2022-11-29T20:53:13.368Z,44.60
2022-11-29T20:55:46.462Z,39.58
2022-11-29T20:58:18.770Z,44.03
2022-11-29T21:00:46.944Z,40.92
2022-11-29T21:03:15.975Z,45.42
2022-11-29T21:05:43.900Z,38.40
2022-11-29T21:08:12.141Z,41.75
2022-11-29T21:10:39.902Z,48.47
2022-11-29T21:13:08.208Z,50.40
2022-11-29T21:15:37.321Z,42.78
2022-11-29T21:18:07.243Z,48.63
2022-11-29T21:20:35.257Z,44.35
2022-11-29T21:23:05.859Z,41.58
2022-11-29T21:25:58.278Z,54.05
2022-11-29T21:28:32.021Z,43.88
2022-11-29T21:30:59.924Z,46.55
2022-11-29T21:33:27.776Z,40.50
2022-11-29T21:35:58.161Z,47.53
2022-11-29T21:38:27.049Z,55.03
2022-11-29T21:40:54.637Z,43.80
2022-11-29T21:43:32.703Z,41.80
2022-11-29T21:46:10.083Z,45.88
2022-11-29T21:48:38.088Z,48.50
2022-11-29T21:51:07.485Z,48.88
2022-11-29T21:53:36.827Z,46.25
2022-11-29T21:56:07.741Z,65.15
2022-11-29T22:01:10.236Z,35.58
2022-11-29T22:03:38.920Z,50.42
2022-11-29T22:06:09.131Z,36.70
2022-11-29T22:08:40.358Z,47.58
2022-11-29T22:11:13.665Z,65.05
2022-11-29T22:14:10.439Z,49.35
2022-11-29T22:16:38.141Z,53.28
2022-11-29T22:19:06.059Z,50.60
2022-11-29T22:21:33.775Z,46.63
2022-11-29T22:24:01.473Z,66.93
2022-11-29T22:26:29.069Z,52.10
2022-11-29T22:28:56.728Z,53.08
2022-11-29T22:31:24.523Z,78.30
2022-11-29T22:33:55.844Z,60.17
2022-11-29T22:36:23.943Z,49.97
2022-11-29T22:38:51.677Z,48.40
2022-11-29T22:41:19.236Z,52.55
2022-11-29T22:43:47.060Z,56.08
2022-11-29T22:46:23.456Z,41.60
2022-11-29T22:48:53.187Z,43.80
2022-11-29T22:51:23.712Z,43.75
2022-11-29T22:53:56.788Z,37.17
2022-11-29T22:56:27.188Z,38.53
2022-11-29T22:58:55.414Z,37.38
2022-11-29T23:01:25.900Z,32.15
2022-11-29T23:03:55.828Z,29.13
2022-11-29T23:06:24.889Z,30.73
2022-11-29T23:08:54.395Z,28.83
2022-11-29T23:11:25.185Z,31.20
2022-11-29T23:13:53.909Z,29.58
2022-11-29T23:16:24.479Z,29.77
2022-11-29T23:18:53.310Z,30.13
2022-11-29T23:21:23.521Z,29.83
2022-11-29T23:23:56.057Z,35.28
2022-11-29T23:26:31.451Z,27.45
2022-11-29T23:28:59.736Z,33.08
2022-11-29T23:31:27.377Z,33.38
2022-11-29T23:33:55.378Z,31.50
2022-11-29T23:36:22.916Z,29.10
2022-11-29T23:38:50.744Z,29.05
2022-11-29T23:41:18.741Z,29.55
2022-11-29T23:43:47.713Z,29.98
2022-11-29T23:46:20.866Z,26.63
2022-11-29T23:48:49.483Z,21.27
2022-11-29T23:51:18.714Z,31.50
2022-11-29T23:53:59.742Z,34.17
2022-11-29T23:56:30.133Z,34.13
2022-11-29T23:58:58.220Z,36.88
